Chilmark, MA (02535)

4:46 AM EDT on July 30, 2016 (GMT -0400)
High Mark | | Change Station

Elev 186 ft 41.35 °N, 70.74 °W | Updated 40 seconds ago

Scattered Clouds
Scattered Clouds
67.4 °F
Feels Like 67.4 °F
N
0.0
Wind Variable Wind from NW
Gusts 3.0 mph

Today
High -- | Low -- °F
--% Chance of Precip.
Yesterday
High -- | Low -- °F
Precip. -- in
Pressure 29.94 in
Visibility 2.0 miles
Clouds Scattered Clouds 700 ft
Dew Point 67 °F
Humidity 99%
Rainfall 0.00 in
Snow Depth Not available.
5:36 AM 8:01 PM
Waning Crescent, 15% visible
SPECI KMVY 300828Z AUTO 35005KT 2SM BR SCT007 18/17 A2994 RMK AO2 T01780172 PNO
Pressure 29.94 in
Visibility 2.0 miles
Clouds Scattered Clouds 700 ft
Dew Point 67 °F
Humidity 99%
Rainfall 0.00 in
Snow Depth Not available.
5:36 AM 8:01 PM
Waning Crescent, 15% visible
SPECI KMVY 300828Z AUTO 35005KT 2SM BR SCT007 18/17 A2994 RMK AO2 T01780172 PNO

10-Day Weather Forecast

Almanac

Astronomy

Jul. 30, 2016 Rise Set
Actual Time
Civil Twilight
Nautical Twilight
Astronomical Twilight
Moon
Length of Visible Light
Length of Day
Tomorrow will be .
, % of the Moon is Illuminated

Today's Extremes

State Highs State Lows

Community

WunderPhotos

Upload Photos

1,928,508 photos uploaded!

WunderBlog® & News

Nearby

Air Quality

  Air Quality AQ Index Pollutant
Not available.

Snow Depth

Station Depth Elevation

Earthquake Activity

City Distance Mag. Time & Date
Minimum magnitude displayed is 2.5.

Coastal Water Temperatures

Place Temperature

Stations

Nearby Weather Stations

Station Location Temp. Windchill Dew Point Humidity Wind Precip. Elev Updated Type
                   

Watches & Warnings

There are currently no watches in effect.